createdAt,value
2022-11-28T00:09:30.156Z,3.60
2022-11-28T00:19:33.231Z,3.58
2022-11-28T00:29:36.323Z,3.56
2022-11-28T00:39:39.337Z,3.60
2022-11-28T00:49:42.629Z,3.62
2022-11-28T00:59:45.717Z,3.57
2022-11-28T01:09:48.835Z,3.59
2022-11-28T01:19:51.961Z,3.56
2022-11-28T01:29:55.112Z,3.50
2022-11-28T01:39:58.588Z,3.58
2022-11-28T01:50:04.284Z,3.54
2022-11-28T02:00:17.038Z,3.46
2022-11-28T02:10:32.804Z,3.39
2022-11-28T02:20:54.418Z,3.34
2022-11-28T02:31:28.908Z,3.27
2022-11-28T02:41:40.794Z,3.32
2022-11-28T02:52:06.415Z,3.35
2022-11-28T03:02:15.628Z,3.27
2022-11-28T03:12:36.903Z,3.23
2022-11-28T03:22:58.962Z,3.18
2022-11-28T03:33:04.302Z,3.07
2022-11-28T03:43:13.868Z,3.06
2022-11-28T03:53:23.104Z,3.02
2022-11-28T04:03:38.385Z,2.96
2022-11-28T04:13:50.191Z,2.96
2022-11-28T04:23:56.619Z,2.99
2022-11-28T04:34:04.072Z,2.97
2022-11-28T04:44:16.120Z,2.96
2022-11-28T04:54:26.619Z,2.88
2022-11-28T05:04:29.777Z,2.80
2022-11-28T05:14:32.903Z,2.76
2022-11-28T05:24:36.015Z,2.75
2022-11-28T05:34:39.505Z,2.73
2022-11-28T05:44:42.786Z,2.71
2022-11-28T05:54:45.780Z,2.67
2022-11-28T06:04:48.831Z,2.63
2022-11-28T06:14:51.891Z,2.62
2022-11-28T06:24:55.031Z,2.66
2022-11-28T06:34:58.159Z,2.79
2022-11-28T06:45:02.218Z,2.79
2022-11-28T06:55:05.763Z,2.72
2022-11-28T07:05:09.054Z,2.77
2022-11-28T07:15:12.530Z,2.90
2022-11-28T07:25:16.179Z,2.83
2022-11-28T07:35:19.370Z,2.70
2022-11-28T07:45:22.978Z,2.66
2022-11-28T07:55:26.153Z,2.83
2022-11-28T08:05:29.277Z,3.04
2022-11-28T08:15:32.515Z,3.04
2022-11-28T08:25:35.607Z,2.90
2022-11-28T08:35:40.058Z,2.95
2022-11-28T08:45:44.729Z,3.12
2022-11-28T08:55:47.908Z,3.28
2022-11-28T09:05:51.284Z,3.22
2022-11-28T09:15:55.557Z,3.40
2022-11-28T09:25:58.667Z,3.66
2022-11-28T09:36:06.709Z,3.74
2022-11-28T09:46:18.700Z,3.66
2022-11-28T09:56:22.637Z,3.68
2022-11-28T10:06:31.890Z,3.82
2022-11-28T10:16:47.459Z,4.09
2022-11-28T10:26:59.601Z,4.15
2022-11-28T10:37:20.052Z,4.02
2022-11-28T10:47:39.446Z,4.15
2022-11-28T10:58:08.800Z,4.25
2022-11-28T11:08:16.170Z,4.27
2022-11-28T11:18:28.881Z,4.28
2022-11-28T11:28:31.901Z,4.25
2022-11-28T11:38:38.076Z,4.17
2022-11-28T11:48:47.780Z,4.06
2022-11-28T11:58:54.661Z,4.03
2022-11-28T12:09:25.273Z,4.00
2022-11-28T12:19:37.541Z,3.99
2022-11-28T12:30:29.285Z,3.94
2022-11-28T12:40:38.448Z,3.98
2022-11-28T12:50:52.702Z,3.93
2022-11-28T13:01:03.475Z,3.90
2022-11-28T13:11:19.788Z,3.84
2022-11-28T13:21:40.060Z,3.85
2022-11-28T13:31:51.344Z,3.84
2022-11-28T13:42:36.007Z,3.81
2022-11-28T13:52:29.531Z,3.81
2022-11-28T14:02:38.708Z,3.79
2022-11-28T14:12:51.808Z,3.76
2022-11-28T14:23:49.519Z,3.71
2022-11-28T14:34:10.547Z,3.66
2022-11-28T14:44:47.750Z,3.67
2022-11-28T14:54:53.138Z,3.67
2022-11-28T15:05:13.921Z,3.61
2022-11-28T15:15:20.572Z,3.57
2022-11-28T15:25:26.616Z,3.54
2022-11-28T15:35:30.847Z,3.49
2022-11-28T15:45:36.006Z,3.48
2022-11-28T15:55:39.189Z,3.48
2022-11-28T16:05:43.843Z,3.49
2022-11-28T16:15:51.663Z,3.49
2022-11-28T16:26:04.259Z,3.47
2022-11-28T16:36:34.533Z,3.45
2022-11-28T16:46:54.088Z,3.40
2022-11-28T16:57:19.186Z,3.36
2022-11-28T17:07:24.319Z,3.32
2022-11-28T17:17:27.900Z,3.28
2022-11-28T17:27:30.957Z,3.24
2022-11-28T17:37:34.102Z,3.21
2022-11-28T17:47:37.206Z,3.16
2022-11-28T17:57:40.310Z,3.12
2022-11-28T18:07:43.559Z,3.10
2022-11-28T18:17:48.591Z,3.04
2022-11-28T18:27:51.961Z,3.03
2022-11-28T18:37:54.985Z,2.99
2022-11-28T18:48:00.410Z,2.92
2022-11-28T18:58:04.145Z,2.77
2022-11-28T19:08:07.407Z,2.67
2022-11-28T19:18:10.680Z,2.59
2022-11-28T19:28:14.317Z,2.41
2022-11-28T19:38:17.810Z,2.25
2022-11-28T19:48:21.527Z,2.16
2022-11-28T19:58:25.790Z,2.11
2022-11-28T20:08:29.101Z,2.09
2022-11-28T20:18:33.709Z,2.08
2022-11-28T20:28:38.526Z,2.06
2022-11-28T20:38:41.912Z,1.98
2022-11-28T20:48:45.793Z,1.98
2022-11-28T20:58:49.292Z,2.00
2022-11-28T21:08:52.558Z,1.93
2022-11-28T21:18:57.426Z,1.90
2022-11-28T21:29:06.214Z,1.91
2022-11-28T21:39:15.563Z,1.91
2022-11-28T21:49:18.878Z,1.91
2022-11-28T21:59:22.470Z,1.92
2022-11-28T22:09:25.755Z,1.91
2022-11-28T22:19:29.408Z,1.91
2022-11-28T22:29:32.837Z,1.92
2022-11-28T22:39:36.199Z,1.94
2022-11-28T22:49:39.457Z,1.91
2022-11-28T22:59:43.631Z,1.86
2022-11-28T23:09:46.841Z,1.86
2022-11-28T23:19:50.140Z,1.85
2022-11-28T23:29:53.440Z,1.86
2022-11-28T23:39:56.773Z,1.87
2022-11-28T23:49:59.938Z,1.88
